London Express — DPLE — position and weather

sailwx.info

Track history (hours):
 
Tides and Currents Weather Stations Pressure Air Temp Water Temp Dewpoint Dewpoint Depression Visibility Wind Speed Wind Dir Waves Ship Positions

London Express

Last reported at 2014-Oct-01 11:25 UTC. Time now 2014-Oct-01 12:15 UTC.
Position N 29°41' W 094°60'.

Length 294 m; beam 32.3 m; draft 13.6 m.

Type: Ship. MMSI: 211262630.

Date/timePositionNaut miles runAvg speedWind from/ knotsBaromVisibWave heightAir tempDewpointWater temp
2014-Oct-01 11:25N 29°41' W 094°60'0 0.0
2014-Oct-01 10:25N 29°41' W 094°60'0 0.0
2014-Oct-01 08:30N 29°41' W 094°60'0 0.0
2014-Oct-01 07:27N 29°41' W 094°60'0 0.0
2014-Oct-01 03:10N 29°41' W 094°60'0 0.0
2014-Oct-01 02:27N 29°41' W 094°60'0 0.0
2014-Oct-01 01:21N 29°41' W 094°60'0 0.0
2014-Sep-30 23:17N 29°41' W 094°60'0 0.0
2014-Sep-30 22:26N 29°41' W 094°60'0 0.0
2014-Sep-30 21:25N 29°41' W 094°60'0 0.0
2014-Sep-30 20:13N 29°41' W 094°60'0 0.0
2014-Sep-30 18:30N 29°41' W 094°60'0 0.0
2014-Sep-30 17:33N 29°41' W 094°60'2 1.8
2014-Sep-30 16:31N 29°40' W 094°58'1010.3
2014-Sep-30 15:33N 29°31' W 094°53'1111.1
2014-Sep-30 14:33N 29°21' W 094°47'  
2014-Sep-27 21:32N 19°40' W 096°07'1414.2
2014-Sep-27 20:33N 19°27' W 096°01'1313.3
2014-Sep-27 19:34N 19°15' W 095°58'10 9.8
2014-Sep-27 18:34N 19°12' W 096°08'0 0.3
2014-Sep-27 17:31N 19°13' W 096°08'0 0.0
2014-Sep-27 16:31N 19°13' W 096°08'0 0.0
2014-Sep-27 15:31N 19°13' W 096°08'0 0.0
2014-Sep-27 14:33N 19°13' W 096°08'0 0.0
2014-Sep-27 13:33N 19°13' W 096°08'0 0.0
2014-Sep-27 12:32N 19°13' W 096°08'0 0.0
2014-Sep-27 11:32N 19°13' W 096°08'0 0.0
2014-Sep-27 10:31N 19°13' W 096°08'0 0.0
2014-Sep-27 09:31N 19°13' W 096°08'0 0.0
2014-Sep-27 08:31N 19°13' W 096°08'0 0.0
2014-Sep-27 07:33N 19°13' W 096°08'0 0.0
2014-Sep-27 06:33N 19°13' W 096°08'0 0.0
2014-Sep-27 05:32N 19°13' W 096°08'0 0.0
2014-Sep-27 04:32N 19°13' W 096°08'0 0.1
2014-Sep-27 03:33N 19°13' W 096°08'6 6.5
2014-Sep-27 02:33N 19°12' W 096°01'9 9.2
2014-Sep-27 01:33N 19°17' W 095°53'2 1.7
2014-Sep-27 00:33N 19°18' W 095°54'2 1.6
2014-Sep-26 23:33N 19°20' W 095°54'2 1.5
2014-Sep-26 22:33N 19°21' W 095°55'1 1.4
2014-Sep-26 21:33N 19°22' W 095°55'1 1.0
2014-Sep-26 20:33N 19°23' W 095°55'223 4.4
2014-Sep-24 18:00N 21°54' W 093°00'45218.8 200 / 111015.010.8 0.529.023.230.0
2014-Sep-23 18:00N 23°24' W 085°00'33115.5 080 / 71016.010.8 0.529.524.830.0
2014-Sep-22 20:33N 25°43' W 079°29'1615.9
2014-Sep-22 19:32N 25°59' W 079°27'1615.9
2014-Sep-22 18:33N 26°14' W 079°24'4 6.7
2014-Sep-22 18:00N 26°18' W 079°24'1427.4 210 / 81017.5 5.4 0.527.022.130.0
2014-Sep-22 17:30N 26°32' W 079°23'18315.9
2014-Sep-22 06:00N 28°12' W 076°30'22118.4 240 / 161016.510.8 1.027.423.429.0
2014-Sep-21 18:00N 30°42' W 073°24'   230 / 301014.0 5.4 4.027.022.828.0
Track history (hours):
 
Tides and Currents Weather Stations Pressure Air Temp Water Temp Dewpoint Dewpoint Depression Visibility Wind Speed Wind Dir Waves Ship Positions

London Express

Last reported at 2014-Oct-01 11:25 UTC. Time now 2014-Oct-01 12:15 UTC.
Position N 29°41' W 094°60'.

Length 294 m; beam 32.3 m; draft 13.6 m.

Type: Ship. MMSI: 211262630.

Date/timePositionNaut miles runAvg speedWind from/ knotsBaromVisibWave heightAir tempDewpointWater temp
2014-Oct-01 11:25N 29°41' W 094°60'0 0.0
2014-Oct-01 10:25N 29°41' W 094°60'0 0.0
2014-Oct-01 08:30N 29°41' W 094°60'0 0.0
2014-Oct-01 07:27N 29°41' W 094°60'0 0.0
2014-Oct-01 03:10N 29°41' W 094°60'0 0.0
2014-Oct-01 02:27N 29°41' W 094°60'0 0.0
2014-Oct-01 01:21N 29°41' W 094°60'0 0.0
2014-Sep-30 23:17N 29°41' W 094°60'0 0.0
2014-Sep-30 22:26N 29°41' W 094°60'0 0.0
2014-Sep-30 21:25N 29°41' W 094°60'0 0.0
2014-Sep-30 20:13N 29°41' W 094°60'0 0.0
2014-Sep-30 18:30N 29°41' W 094°60'0 0.0
2014-Sep-30 17:33N 29°41' W 094°60'2 1.8
2014-Sep-30 16:31N 29°40' W 094°58'1010.3
2014-Sep-30 15:33N 29°31' W 094°53'1111.1
2014-Sep-30 14:33N 29°21' W 094°47'  
2014-Sep-27 21:32N 19°40' W 096°07'1414.2
2014-Sep-27 20:33N 19°27' W 096°01'1313.3
2014-Sep-27 19:34N 19°15' W 095°58'10 9.8
2014-Sep-27 18:34N 19°12' W 096°08'0 0.3
2014-Sep-27 17:31N 19°13' W 096°08'0 0.0
2014-Sep-27 16:31N 19°13' W 096°08'0 0.0
2014-Sep-27 15:31N 19°13' W 096°08'0 0.0
2014-Sep-27 14:33N 19°13' W 096°08'0 0.0
2014-Sep-27 13:33N 19°13' W 096°08'0 0.0
2014-Sep-27 12:32N 19°13' W 096°08'0 0.0
2014-Sep-27 11:32N 19°13' W 096°08'0 0.0
2014-Sep-27 10:31N 19°13' W 096°08'0 0.0
2014-Sep-27 09:31N 19°13' W 096°08'0 0.0
2014-Sep-27 08:31N 19°13' W 096°08'0 0.0
2014-Sep-27 07:33N 19°13' W 096°08'0 0.0
2014-Sep-27 06:33N 19°13' W 096°08'0 0.0
2014-Sep-27 05:32N 19°13' W 096°08'0 0.0
2014-Sep-27 04:32N 19°13' W 096°08'0 0.1
2014-Sep-27 03:33N 19°13' W 096°08'6 6.5
2014-Sep-27 02:33N 19°12' W 096°01'9 9.2
2014-Sep-27 01:33N 19°17' W 095°53'2 1.7
2014-Sep-27 00:33N 19°18' W 095°54'2 1.6
2014-Sep-26 23:33N 19°20' W 095°54'2 1.5
2014-Sep-26 22:33N 19°21' W 095°55'1 1.4
2014-Sep-26 21:33N 19°22' W 095°55'1 1.0
2014-Sep-26 20:33N 19°23' W 095°55'223 4.4
2014-Sep-24 18:00N 21°54' W 093°00'45218.8 200 / 111015.010.8 0.529.023.230.0
2014-Sep-23 18:00N 23°24' W 085°00'33115.5 080 / 71016.010.8 0.529.524.830.0
2014-Sep-22 20:33N 25°43' W 079°29'1615.9
2014-Sep-22 19:32N 25°59' W 079°27'1615.9
2014-Sep-22 18:33N 26°14' W 079°24'4 6.7
2014-Sep-22 18:00N 26°18' W 079°24'1427.4 210 / 81017.5 5.4 0.527.022.130.0
2014-Sep-22 17:30N 26°32' W 079°23'18315.9
2014-Sep-22 06:00N 28°12' W 076°30'22118.4 240 / 161016.510.8 1.027.423.429.0
2014-Sep-21 18:00N 30°42' W 073°24'   230 / 301014.0 5.4 4.027.022.828.0

Dump ship's entire track history